Time;durP1;ratioP1;P1;durP2;ratioP2;P2;SDS_P1;SDS_P2;PMS_P1;PMS_P2;Temp;Humidity;BMP_temperature;BMP_pressure;BME280_temperature;BME280_humidity;BME280_pressure;Samples;Min_cycle;Max_cycle;Signal;HPM_P1;HPM_P2
2022/01/02 00:00:10;;;;;;;13.47;6.27;;;11.10;99.90;;;;;;4862203;29;20048;-91
2022/01/02 00:02:46;;;;;;;11.45;5.95;;;11.10;99.90;;;;;;4862333;29;20043;-92
2022/01/02 00:05:18;;;;;;;12.23;6.60;;;11.10;99.90;;;;;;4861772;29;20045;-90
2022/01/02 00:07:55;;;;;;;14.38;6.43;;;11.00;99.90;;;;;;4861142;29;20060;-91
2022/01/02 00:10:21;;;;;;;11.35;5.88;;;12.30;99.90;;;;;;4877782;29;20134;-91
2022/01/02 00:12:56;;;;;;;13.48;6.63;;;10.90;99.90;;;;;;4877742;29;20494;-91
2022/01/02 00:15:23;;;;;;;13.75;6.30;;;11.50;99.90;;;;;;4861778;29;20049;-91
2022/01/02 00:17:55;;;;;;;12.65;6.53;;;10.90;99.90;;;;;;4861304;29;20061;-92
2022/01/02 00:20:31;;;;;;;12.40;6.43;;;9.80;99.90;;;;;;4862448;29;20049;-91
2022/01/02 00:23:05;;;;;;;12.55;6.70;;;11.40;99.90;;;;;;4862095;29;20048;-91
2022/01/02 00:25:35;;;;;;;13.10;6.53;;;10.90;99.90;;;;;;4862474;29;20041;-92
2022/01/02 00:28:01;;;;;;;14.53;6.50;;;10.90;99.90;;;;;;4883255;29;20041;-91
2022/01/02 00:30:27;;;;;;;15.07;7.23;;;10.90;99.90;;;;;;4870934;29;20048;-92
2022/01/02 00:32:53;;;;;;;14.23;6.80;;;10.90;99.90;;;;;;4862486;29;20052;-92
2022/01/02 00:35:24;;;;;;;13.32;6.93;;;10.90;99.90;;;;;;4861655;29;20041;-91
2022/01/02 00:37:59;;;;;;;15.85;7.63;;;10.80;99.90;;;;;;4862011;29;20132;-91
2022/01/02 00:40:27;;;;;;;13.67;6.60;;;11.30;99.90;;;;;;4864406;29;20060;-91
2022/01/02 00:43:02;;;;;;;16.13;7.05;;;11.40;99.90;;;;;;4865174;29;20047;-91
2022/01/02 00:45:40;;;;;;;12.75;6.38;;;10.40;99.90;;;;;;4904824;29;20085;-92
2022/01/02 00:48:13;;;;;;;13.35;6.93;;;10.60;99.90;;;;;;4876120;29;20078;-92
2022/01/02 00:50:59;;;;;;;13.73;7.13;;;10.80;99.90;;;;;;4864252;29;20095;-93
2022/01/02 00:53:34;;;;;;;14.70;6.90;;;10.30;99.90;;;;;;4865995;29;20313;-92
2022/01/02 00:56:01;;;;;;;12.87;6.40;;;11.90;99.90;;;;;;4865054;29;20045;-93
2022/01/02 00:58:45;;;;;;;14.98;6.82;;;10.80;99.90;;;;;;4865447;29;20505;-93
2022/01/02 01:01:15;;;;;;;13.45;6.70;;;10.60;99.90;;;;;;4865518;29;20044;-93
2022/01/02 01:03:41;;;;;;;14.98;7.03;;;10.20;99.90;;;;;;4865458;29;20059;-93
2022/01/02 01:06:10;;;;;;;15.97;7.53;;;11.80;99.90;;;;;;4868042;29;20049;-94
2022/01/02 01:09:13;;;;;;;16.95;7.03;;;10.70;99.90;;;;;;4866685;29;20059;-94
2022/01/02 01:11:51;;;;;;;13.48;6.68;;;10.80;99.90;;;;;;4865175;29;20071;-93
2022/01/02 01:14:23;;;;;;;18.65;7.53;;;10.70;99.90;;;;;;4865942;29;20060;-94
2022/01/02 01:16:53;;;;;;;14.27;6.70;;;10.40;99.90;;;;;;4865479;29;20053;-94
2022/01/02 01:19:23;;;;;;;14.45;7.07;;;11.20;99.90;;;;;;4881652;29;20124;-93
2022/01/02 01:21:58;;;;;;;15.65;7.38;;;10.70;99.90;;;;;;4866152;29;20053;-95
2022/01/02 01:24:29;;;;;;;13.43;7.03;;;10.50;99.90;;;;;;4865988;29;20126;-96
2022/01/02 01:26:59;;;;;;;14.68;7.05;;;9.90;99.90;;;;;;4865891;29;20045;-94
2022/01/02 01:29:28;;;;;;;15.65;7.70;;;11.70;99.90;;;;;;4866037;29;20049;-96
2022/01/02 01:32:28;;;;;;;15.00;7.27;;;10.50;99.90;;;;;;4881905;29;20056;-96
2022/01/02 01:35:05;;;;;;;13.67;6.80;;;10.60;99.90;;;;;;4846626;29;20148;-95
2022/01/02 01:37:31;;;;;;;17.20;7.43;;;10.60;99.90;;;;;;4866418;29;20489;-95
2022/01/02 01:39:59;;;;;;;15.50;6.77;;;10.50;99.90;;;;;;4881600;29;20045;-96
2022/01/02 01:42:36;;;;;;;14.50;7.23;;;10.50;99.90;;;;;;4866510;29;20060;-96
2022/01/02 01:45:28;;;;;;;15.50;7.00;;;11.50;99.90;;;;;;4866308;29;20045;-96
2022/01/02 01:48:01;;;;;;;16.63;7.30;;;10.60;99.90;;;;;;4865265;29;20052;-96
2022/01/02 01:50:33;;;;;;;14.60;7.20;;;10.80;99.90;;;;;;4865838;29;20088;-96
2022/01/02 01:52:59;;;;;;;18.17;8.20;;;11.40;99.90;;;;;;4865874;29;20519;-96
2022/01/02 01:55:28;;;;;;;17.23;7.68;;;11.00;99.90;;;;;;4866255;29;20045;-96
2022/01/02 01:57:57;;;;;;;15.70;6.80;;;10.50;99.90;;;;;;4866134;29;20147;-96
2022/01/02 02:00:29;;;;;;;17.33;8.07;;;10.50;99.90;;;;;;4865944;29;20090;-96
2022/01/02 02:02:56;;;;;;;16.10;7.38;;;11.10;99.90;;;;;;4865728;29;20041;-96
2022/01/02 02:05:32;;;;;;;15.18;7.32;;;10.70;99.90;;;;;;4865682;29;20049;-96
2022/01/02 02:08:01;;;;;;;16.80;7.57;;;10.60;99.90;;;;;;4865374;29;20148;-96
2022/01/02 02:10:38;;;;;;;19.77;8.00;;;10.30;99.90;;;;;;4865819;29;20045;-96
2022/01/02 02:13:05;;;;;;;17.17;7.13;;;10.40;99.90;;;;;;4865380;29;20060;-96
2022/01/02 02:15:32;;;;;;;15.40;7.47;;;10.50;99.90;;;;;;4872955;29;20029;-96
2022/01/02 02:18:01;;;;;;;15.90;7.80;;;10.60;99.90;;;;;;4886289;29;20037;-96
2022/01/02 02:20:36;;;;;;;18.17;8.25;;;10.30;99.90;;;;;;4887758;29;20100;-96
2022/01/02 02:23:05;;;;;;;16.10;7.47;;;10.80;99.90;;;;;;4868546;29;20073;-96
2022/01/02 02:25:54;;;;;;;16.80;8.07;;;10.90;99.90;;;;;;4866806;29;20044;-96
2022/01/02 02:28:26;;;;;;;16.83;7.78;;;10.10;99.90;;;;;;4865649;29;20096;-96
2022/01/02 02:31:11;;;;;;;16.67;7.63;;;10.70;99.90;;;;;;4865507;29;20085;-96
2022/01/02 02:33:43;;;;;;;18.60;7.47;;;10.50;99.90;;;;;;4864987;29;20140;-95
2022/01/02 02:36:13;;;;;;;15.50;7.83;;;10.40;99.90;;;;;;4865561;29;20080;-96
2022/01/02 02:38:45;;;;;;;15.73;7.10;;;11.40;99.90;;;;;;4865284;29;20053;-96
2022/01/02 02:41:13;;;;;;;15.87;7.63;;;11.70;99.90;;;;;;4865151;29;20049;-96
2022/01/02 02:43:57;;;;;;;17.00;7.87;;;10.50;99.90;;;;;;4865038;29;20080;-95
2022/01/02 02:49:46;;;;;;;18.23;8.57;;;10.50;99.90;;;;;;4864499;29;20143;-95
2022/01/02 02:55:17;;;;;;;14.27;7.80;;;11.20;99.90;;;;;;4864389;29;20405;-96
2022/01/02 02:57:46;;;;;;;17.83;9.47;;;10.30;99.90;;;;;;4864991;29;20068;-96
2022/01/02 03:00:18;;;;;;;19.13;8.47;;;10.50;99.90;;;;;;4864828;29;20049;-96
2022/01/02 03:02:50;;;;;;;16.83;7.18;;;10.40;99.90;;;;;;4863732;29;20136;-96
2022/01/02 03:05:18;;;;;;;17.17;7.50;;;10.90;99.90;;;;;;4864216;29;20508;-96
2022/01/02 03:07:50;;;;;;;16.75;7.93;;;10.10;99.90;;;;;;4863806;29;20170;-96
2022/01/02 03:10:23;;;;;;;16.58;7.50;;;11.40;99.90;;;;;;4864417;29;20044;-96
2022/01/02 03:12:52;;;;;;;17.15;7.63;;;10.50;99.90;;;;;;4864340;29;20049;-96
2022/01/02 03:15:26;;;;;;;18.02;8.63;;;10.20;99.90;;;;;;4864252;29;20052;-96
2022/01/02 03:17:52;;;;;;;17.50;7.73;;;10.40;99.90;;;;;;4864174;29;20124;-96
2022/01/02 03:20:26;;;;;;;16.17;7.65;;;11.20;99.90;;;;;;4879669;29;20490;-95
2022/01/02 03:22:55;;;;;;;15.33;7.60;;;10.20;99.90;;;;;;4864629;29;20051;-96
2022/01/02 03:25:24;;;;;;;17.40;7.70;;;11.20;99.90;;;;;;4864251;29;20045;-96
2022/01/02 03:27:55;;;;;;;14.40;8.00;;;11.40;99.90;;;;;;4864068;29;20393;-96
2022/01/02 03:30:24;;;;;;;15.55;7.78;;;11.70;99.90;;;;;;4864484;29;20132;-96
2022/01/02 03:32:56;;;;;;;18.20;7.85;;;10.80;99.90;;;;;;4864085;29;20056;-96
2022/01/02 03:35:31;;;;;;;15.95;7.78;;;10.20;99.90;;;;;;4864035;29;20060;-96
2022/01/02 03:38:03;;;;;;;15.07;7.78;;;11.20;99.90;;;;;;4863763;29;20053;-96
2022/01/02 03:40:32;;;;;;;17.07;7.80;;;10.40;99.90;;;;;;4863923;29;20049;-96
2022/01/02 03:43:04;;;;;;;16.50;7.80;;;10.10;99.90;;;;;;4864075;29;20135;-96
2022/01/02 03:45:32;;;;;;;17.65;8.23;;;10.40;99.90;;;;;;4864009;29;20136;-96
2022/01/02 03:48:04;;;;;;;17.73;8.13;;;10.40;99.90;;;;;;4876914;29;20063;-95
2022/01/02 03:50:36;;;;;;;19.17;8.30;;;10.40;99.90;;;;;;4886362;29;20029;-96
2022/01/02 03:53:06;;;;;;;18.20;8.07;;;10.20;99.90;;;;;;4867455;29;20045;-96
2022/01/02 03:55:39;;;;;;;18.92;10.88;;;11.30;99.90;;;;;;4864639;29;20526;-96
2022/01/02 03:58:08;;;;;;;16.63;7.65;;;10.30;99.90;;;;;;4864082;29;20095;-96
2022/01/02 04:00:43;;;;;;;19.73;7.50;;;10.30;99.90;;;;;;4863932;29;20053;-95
2022/01/02 04:03:18;;;;;;;17.00;8.13;;;10.00;99.90;;;;;;4864971;29;20040;-96
2022/01/02 04:05:51;;;;;;;21.23;11.50;;;10.50;99.90;;;;;;4871464;29;20037;-96
2022/01/02 04:08:20;;;;;;;18.08;8.55;;;10.40;99.90;;;;;;4884802;29;20053;-96
2022/01/02 04:10:49;;;;;;;15.10;7.10;;;10.70;99.90;;;;;;4871521;29;20049;-96
2022/01/02 04:13:21;;;;;;;16.00;7.43;;;11.40;99.90;;;;;;4863972;29;20112;-96
2022/01/02 04:15:52;;;;;;;17.63;8.10;;;10.40;99.90;;;;;;4865942;29;20041;-96
2022/01/02 04:18:20;;;;;;;16.35;7.53;;;11.40;99.90;;;;;;4867435;29;20133;-96
2022/01/02 04:20:51;;;;;;;16.07;7.10;;;10.00;99.90;;;;;;4866492;29;20089;-95
2022/01/02 04:23:23;;;;;;;20.50;7.40;;;11.70;99.90;;;;;;4867261;29;20144;-96
2022/01/02 04:25:54;;;;;;;15.77;7.25;;;10.60;99.90;;;;;;4866751;29;20037;-95
2022/01/02 04:28:28;;;;;;;17.05;7.75;;;11.40;99.90;;;;;;4866864;29;20049;-96
2022/01/02 04:30:59;;;;;;;16.25;7.18;;;11.10;99.90;;;;;;4866855;29;20060;-96
2022/01/02 04:33:31;;;;;;;15.38;6.82;;;10.30;99.90;;;;;;4866994;29;20056;-95
2022/01/02 04:36:03;;;;;;;17.65;7.05;;;11.50;99.90;;;;;;4866653;29;20104;-96
2022/01/02 04:38:33;;;;;;;16.55;7.05;;;10.60;99.90;;;;;;4874294;23;20053;-96
2022/01/02 04:41:02;;;;;;;19.23;7.03;;;10.70;99.90;;;;;;4887881;23;20060;-95
2022/01/02 04:43:34;;;;;;;16.17;6.97;;;11.10;99.90;;;;;;4884888;29;20047;-95
2022/01/02 04:46:02;;;;;;;17.40;6.85;;;10.60;99.90;;;;;;4903142;23;20052;-95
2022/01/02 04:48:37;;;;;;;15.93;6.28;;;10.80;99.90;;;;;;4885009;29;20056;-96
2022/01/02 04:51:20;;;;;;;15.18;6.60;;;10.80;99.90;;;;;;4978928;23;20404;-95
2022/01/02 04:53:54;;;;;;;14.77;6.45;;;10.90;99.90;;;;;;4885111;29;20049;-96
2022/01/02 04:56:22;;;;;;;17.00;6.93;;;10.50;99.90;;;;;;4885694;29;20045;-96
2022/01/02 04:58:50;;;;;;;15.83;6.53;;;10.50;99.90;;;;;;4885249;29;20508;-96
2022/01/02 05:01:22;;;;;;;17.73;6.70;;;10.90;99.90;;;;;;4885105;29;20509;-96
2022/01/02 05:03:54;;;;;;;15.67;6.40;;;11.90;99.90;;;;;;4885155;29;20048;-96
2022/01/02 05:06:23;;;;;;;14.50;5.53;;;10.60;99.90;;;;;;4884801;29;20489;-96
2022/01/02 05:08:55;;;;;;;14.13;5.87;;;11.00;99.90;;;;;;4885100;29;20051;-96
2022/01/02 05:11:28;;;;;;;16.52;6.18;;;11.80;99.90;;;;;;4885554;29;20131;-96
2022/01/02 05:13:57;;;;;;;18.10;6.88;;;11.00;99.90;;;;;;4886619;29;20044;-96
2022/01/02 05:16:26;;;;;;;18.70;6.07;;;10.90;99.90;;;;;;4885219;29;20080;-96
2022/01/02 05:19:00;;;;;;;19.17;6.20;;;10.90;99.90;;;;;;4891094;29;20032;-95
2022/01/02 05:21:26;;;;;;;14.93;5.97;;;10.80;99.90;;;;;;4908392;29;20021;-96
2022/01/02 05:23:58;;;;;;;15.73;6.00;;;10.20;99.90;;;;;;4896066;29;20143;-96
2022/01/02 05:26:31;;;;;;;17.02;6.43;;;12.10;99.90;;;;;;4884829;29;20057;-96
2022/01/02 05:28:59;;;;;;;16.30;5.63;;;10.90;99.90;;;;;;4884458;29;20386;-95
2022/01/02 05:31:33;;;;;;;16.55;6.00;;;11.30;99.90;;;;;;4885230;29;20066;-95
2022/01/02 05:34:01;;;;;;;13.90;5.22;;;11.20;99.90;;;;;;4885042;29;20088;-96
2022/01/02 05:36:35;;;;;;;19.05;6.30;;;10.90;99.90;;;;;;4884700;29;20560;-96
2022/01/02 05:39:01;;;;;;;17.10;6.68;;;10.50;99.90;;;;;;4884743;29;20092;-96
2022/01/02 05:41:29;;;;;;;16.38;5.35;;;11.90;99.90;;;;;;4884976;29;20477;-95
2022/01/02 05:43:55;;;;;;;16.52;5.85;;;11.80;99.90;;;;;;4884152;29;20044;-94
2022/01/02 05:46:22;;;;;;;13.38;5.30;;;11.60;99.90;;;;;;4884316;29;20048;-96
2022/01/02 05:48:48;;;;;;;17.90;5.57;;;11.10;99.90;;;;;;4884438;29;20041;-96
2022/01/02 05:51:13;;;;;;;15.20;5.68;;;12.00;99.90;;;;;;4884297;29;20139;-96
2022/01/02 05:53:39;;;;;;;12.82;5.28;;;11.30;99.90;;;;;;4884661;29;20102;-96
2022/01/02 06:02:38;;;;;;;13.88;4.72;;;11.00;99.90;;;;;;4882639;29;20048;-96
2022/01/02 06:05:06;;;;;;;16.05;5.80;;;12.10;99.90;;;;;;4865712;29;20079;-96
2022/01/02 06:07:38;;;;;;;14.38;4.93;;;11.50;99.90;;;;;;4865609;29;20141;-96
2022/01/02 06:10:07;;;;;;;14.63;4.32;;;10.40;99.90;;;;;;4865486;29;20056;-96
2022/01/02 06:12:36;;;;;;;13.35;4.55;;;11.60;99.90;;;;;;4865552;29;20489;-96
2022/01/02 06:15:06;;;;;;;14.05;4.57;;;11.00;99.90;;;;;;4865627;29;20152;-96
2022/01/02 06:17:32;;;;;;;12.43;3.88;;;11.60;99.90;;;;;;4866063;29;20049;-96
2022/01/02 06:19:57;;;;;;;15.07;4.57;;;11.30;99.90;;;;;;4910477;23;20080;-95
2022/01/02 06:23:17;;;;;;;13.52;4.80;;;12.30;99.90;;;;;;4899635;29;20053;-96
2022/01/02 06:25:52;;;;;;;16.48;4.90;;;11.70;99.90;;;;;;4883278;29;20420;-96
2022/01/02 06:28:20;;;;;;;12.73;4.50;;;11.50;99.90;;;;;;4883963;29;20123;-96
2022/01/02 06:30:52;;;;;;;13.20;4.68;;;12.00;99.90;;;;;;4884642;29;20112;-96
2022/01/02 06:33:18;;;;;;;12.95;4.47;;;11.30;99.90;;;;;;4885564;29;20116;-95
2022/01/02 06:35:43;;;;;;;15.93;5.07;;;10.90;99.90;;;;;;4883616;29;20044;-96
2022/01/02 06:38:15;;;;;;;12.43;4.55;;;12.00;99.90;;;;;;4884565;29;20100;-96
2022/01/02 06:40:41;;;;;;;12.95;4.88;;;13.10;99.90;;;;;;4885965;29;20124;-96
2022/01/02 06:43:07;;;;;;;16.45;5.03;;;11.70;99.90;;;;;;4886041;29;20513;-96
2022/01/02 06:45:36;;;;;;;14.48;5.25;;;10.80;99.90;;;;;;4901323;23;20044;-96
2022/01/02 06:48:28;;;;;;;;;;;;;;;;;;;;;
2022/01/02 06:51:40;;;;;;;15.27;5.03;;;11.40;99.90;;;;;;5019465;23;20054;-96
2022/01/02 06:56:54;;;;;;;15.40;5.13;;;11.40;99.90;;;;;;4900703;23;20147;-96
2022/01/02 06:59:23;;;;;;;14.68;5.20;;;12.30;99.90;;;;;;4884160;29;20438;-96
2022/01/02 07:01:54;;;;;;;14.10;5.88;;;11.40;99.90;;;;;;4883469;29;20433;-96
2022/01/02 07:04:20;;;;;;;12.80;5.13;;;11.70;99.90;;;;;;4883854;29;20060;-96
2022/01/02 07:07:20;;;;;;;12.30;5.40;;;11.20;99.90;;;;;;4883466;29;20044;-96
2022/01/02 07:09:51;;;;;;;13.55;5.20;;;12.30;99.90;;;;;;4882685;29;20139;-96
2022/01/02 07:12:21;;;;;;;16.55;5.88;;;11.20;99.90;;;;;;4883118;29;20089;-96
2022/01/02 07:14:50;;;;;;;14.80;5.60;;;10.60;99.90;;;;;;4883795;29;20104;-87
2022/01/02 07:17:19;;;;;;;17.98;5.88;;;11.60;99.90;;;;;;4880836;29;20135;-89
2022/01/02 07:19:51;;;;;;;16.52;5.35;;;10.80;99.90;;;;;;4897828;29;20049;-86
2022/01/02 07:22:26;;;;;;;13.23;5.72;;;11.40;99.90;;;;;;4881215;29;20056;-87
2022/01/02 07:24:58;;;;;;;13.55;5.50;;;11.00;99.90;;;;;;4880265;29;20041;-89
2022/01/02 07:27:27;;;;;;;15.15;5.80;;;11.00;99.90;;;;;;4881412;29;20052;-90
2022/01/02 07:30:18;;;;;;;14.75;4.78;;;11.20;99.90;;;;;;4880139;29;20901;-89
2022/01/02 07:32:44;;;;;;;14.25;5.03;;;11.70;99.90;;;;;;4880944;29;20389;-88
2022/01/02 07:35:09;;;;;;;15.48;5.38;;;11.30;99.90;;;;;;4881184;29;20063;-89
2022/01/02 07:37:36;;;;;;;14.53;5.00;;;11.30;99.90;;;;;;4880081;29;20135;-89
2022/01/02 07:40:03;;;;;;;14.97;5.30;;;11.20;99.90;;;;;;4880645;29;20055;-88
2022/01/02 07:42:29;;;;;;;12.87;5.07;;;11.30;99.90;;;;;;4881346;29;20044;-89
2022/01/02 07:44:54;;;;;;;13.33;5.20;;;11.30;99.90;;;;;;4880830;29;20104;-90
2022/01/02 07:47:20;;;;;;;13.77;5.43;;;11.20;99.90;;;;;;4894316;29;20052;-88
2022/01/02 07:49:45;;;;;;;14.48;5.40;;;11.30;99.90;;;;;;4891089;23;20068;-90
2022/01/02 07:52:11;;;;;;;16.50;5.47;;;11.30;99.90;;;;;;4881344;29;20053;-89
2022/01/02 07:54:38;;;;;;;13.90;5.28;;;11.30;99.90;;;;;;4881091;29;20441;-90
2022/01/02 07:57:04;;;;;;;15.48;5.88;;;11.30;99.90;;;;;;4880711;29;20417;-89
2022/01/02 07:59:30;;;;;;;16.17;5.38;;;11.20;99.90;;;;;;4880527;29;20048;-87
2022/01/02 08:01:55;;;;;;;13.07;5.40;;;11.20;99.90;;;;;;4880504;29;20036;-90
2022/01/02 08:04:21;;;;;;;14.05;4.70;;;11.40;99.90;;;;;;4881442;29;20059;-90
2022/01/02 08:06:52;;;;;;;13.35;5.20;;;11.10;99.90;;;;;;4880339;29;20169;-91
2022/01/02 08:09:18;;;;;;;12.95;4.93;;;11.20;99.90;;;;;;4880953;29;20053;-90
2022/01/02 08:11:53;;;;;;;16.55;5.32;;;11.40;99.90;;;;;;4880291;29;20516;-89
2022/01/02 08:14:21;;;;;;;14.57;5.60;;;11.40;99.90;;;;;;4895741;23;20492;-90
2022/01/02 08:16:50;;;;;;;13.05;5.22;;;11.20;99.90;;;;;;4880936;29;20377;-90
2022/01/02 08:19:19;;;;;;;14.40;5.40;;;11.20;99.90;;;;;;4879075;29;20492;-89
2022/01/02 08:21:53;;;;;;;13.50;5.20;;;11.20;99.90;;;;;;4887043;23;20101;-93
2022/01/02 08:24:43;;;;;;;13.68;5.55;;;11.70;99.90;;;;;;4902400;29;20052;-92
2022/01/02 08:27:09;;;;;;;13.48;4.95;;;10.90;99.90;;;;;;4884008;29;20485;-88
2022/01/02 08:29:35;;;;;;;14.13;5.32;;;11.10;99.90;;;;;;4872496;29;20060;-89
2022/01/02 08:32:03;;;;;;;14.27;5.30;;;11.20;99.90;;;;;;4869931;29;20454;-87
2022/01/02 08:34:32;;;;;;;11.63;5.10;;;11.10;99.90;;;;;;4879836;29;20485;-87
2022/01/02 08:37:04;;;;;;;13.88;5.15;;;10.80;99.90;;;;;;4880185;29;20055;-90
2022/01/02 08:39:38;;;;;;;12.07;5.68;;;10.80;99.90;;;;;;4880255;29;20044;-90
2022/01/02 08:42:04;;;;;;;13.05;5.47;;;11.10;99.90;;;;;;4879356;29;20049;-90
2022/01/02 08:44:41;;;;;;;14.27;5.20;;;11.00;99.90;;;;;;4880474;29;20089;-89
2022/01/02 08:47:07;;;;;;;11.33;5.00;;;10.70;99.90;;;;;;4879753;29;20045;-89
2022/01/02 08:49:39;;;;;;;15.07;5.67;;;11.10;99.90;;;;;;4880471;29;20401;-90
2022/01/02 08:52:08;;;;;;;17.07;4.93;;;10.80;99.90;;;;;;4879858;29;20059;-90
2022/01/02 08:54:38;;;;;;;12.48;5.40;;;10.60;99.90;;;;;;4879577;29;20454;-89
2022/01/02 08:57:07;;;;;;;14.65;5.22;;;10.80;99.90;;;;;;4880167;29;20052;-89
2022/01/02 08:59:41;;;;;;;12.95;4.63;;;10.80;99.90;;;;;;4880932;29;20096;-90
2022/01/02 09:02:15;;;;;;;10.43;4.28;;;10.30;99.90;;;;;;4882459;29;20139;-90
2022/01/02 09:04:46;;;;;;;12.27;5.10;;;11.20;99.90;;;;;;4883477;29;20108;-90
2022/01/02 09:07:15;;;;;;;13.50;4.72;;;11.80;99.90;;;;;;4883755;29;20088;-90
2022/01/02 09:09:47;;;;;;;12.23;5.03;;;11.30;99.90;;;;;;4882587;29;20059;-89
2022/01/02 09:12:18;;;;;;;17.27;7.68;;;11.00;99.90;;;;;;4883656;29;20051;-90
2022/01/02 09:14:47;;;;;;;13.63;5.22;;;10.90;99.90;;;;;;4883500;29;20120;-89
2022/01/02 09:17:19;;;;;;;14.65;4.75;;;12.20;99.90;;;;;;4882879;29;20051;-90
2022/01/02 09:19:49;;;;;;;12.45;4.55;;;11.70;99.90;;;;;;4883127;29;20051;-90
2022/01/02 09:22:20;;;;;;;12.32;4.30;;;11.20;99.90;;;;;;4882809;29;20576;-85
2022/01/02 09:24:46;;;;;;;12.57;5.60;;;10.90;99.90;;;;;;4900213;29;20405;-88
2022/01/02 09:27:21;;;;;;;12.70;4.47;;;10.90;99.90;;;;;;4883063;29;20040;-88
2022/01/02 09:29:52;;;;;;;12.93;4.78;;;10.40;99.90;;;;;;4882545;29;20045;-88
2022/01/02 09:32:21;;;;;;;13.93;5.05;;;11.00;99.90;;;;;;4883838;29;20048;-88
2022/01/02 09:34:53;;;;;;;13.40;4.68;;;11.40;99.90;;;;;;4883897;29;20090;-88
2022/01/02 09:37:19;;;;;;;13.40;5.05;;;11.30;99.90;;;;;;4892948;29;20049;-87
2022/01/02 09:39:47;;;;;;;14.48;5.50;;;11.10;99.90;;;;;;4884924;29;20136;-88
2022/01/02 09:42:12;;;;;;;12.60;5.38;;;11.80;99.90;;;;;;4865052;29;20072;-88
2022/01/02 09:45:13;;;;;;;11.55;5.22;;;11.00;99.90;;;;;;4863540;29;20417;-88
2022/01/02 09:47:45;;;;;;;13.15;4.68;;;11.20;99.90;;;;;;4864477;29;20083;-88
2022/01/02 09:50:18;;;;;;;30.35;19.80;;;11.10;99.90;;;;;;4864292;29;20081;-88
2022/01/02 09:52:49;;;;;;;18.67;9.40;;;11.40;99.90;;;;;;4864112;29;20049;-88
2022/01/02 09:55:17;;;;;;;12.20;4.75;;;10.90;99.90;;;;;;4874053;29;20108;-87
2022/01/02 09:57:49;;;;;;;14.13;4.60;;;10.90;99.90;;;;;;4875796;29;20132;-88
2022/01/02 10:00:16;;;;;;;11.43;4.10;;;11.10;99.90;;;;;;4864565;29;20076;-88
2022/01/02 10:03:04;;;;;;;13.13;6.30;;;11.20;99.90;;;;;;4873748;29;20048;-89
2022/01/02 10:05:52;;;;;;;12.82;4.97;;;12.30;99.90;;;;;;4888629;29;20446;-88
2022/01/02 10:08:26;;;;;;;12.48;5.13;;;11.30;99.90;;;;;;4873678;29;20045;-91
2022/01/02 10:11:07;;;;;;;13.35;6.18;;;11.20;99.90;;;;;;4872913;29;20137;-89
2022/01/02 10:13:42;;;;;;;12.00;4.50;;;11.20;99.90;;;;;;4872411;29;20478;-89
2022/01/02 10:16:34;;;;;;;14.25;4.85;;;11.20;99.90;;;;;;4874564;29;20067;-90
2022/01/02 10:19:32;;;;;;;12.90;4.43;;;11.30;99.90;;;;;;4882307;29;20057;-90
2022/01/02 10:22:00;;;;;;;14.65;5.25;;;11.30;99.90;;;;;;4881654;29;20100;-89
2022/01/02 10:24:31;;;;;;;13.05;5.30;;;11.40;99.90;;;;;;4882359;29;20052;-91
2022/01/02 10:27:08;;;;;;;13.80;7.97;;;11.50;99.90;;;;;;4898329;29;20056;-89
2022/01/02 10:29:50;;;;;;;11.63;4.90;;;11.50;99.90;;;;;;4899059;29;20056;-89
2022/01/02 10:32:26;;;;;;;14.38;6.93;;;11.50;99.90;;;;;;4882492;29;20037;-88
2022/01/02 10:34:53;;;;;;;15.32;5.68;;;11.50;99.90;;;;;;4879073;29;20045;-88
2022/01/02 10:37:26;;;;;;;10.43;5.03;;;11.50;99.90;;;;;;4888295;29;20045;-90
2022/01/02 10:39:52;;;;;;;12.30;5.28;;;11.50;99.90;;;;;;4871714;29;20044;-90
2022/01/02 10:42:20;;;;;;;13.43;4.97;;;11.50;99.90;;;;;;4871451;29;20055;-89
2022/01/02 10:44:46;;;;;;;12.07;5.10;;;11.50;99.90;;;;;;4889542;29;20044;-89
2022/01/02 10:47:26;;;;;;;12.02;5.95;;;11.60;99.90;;;;;;4871381;29;20048;-91
2022/01/02 10:50:05;;;;;;;13.27;5.10;;;11.60;99.90;;;;;;4872115;29;20072;-92
2022/01/02 10:52:35;;;;;;;14.25;6.10;;;11.70;99.90;;;;;;4872648;29;20085;-93
2022/01/02 10:55:14;;;;;;;12.93;5.38;;;11.70;99.90;;;;;;4879818;29;20052;-93
2022/01/02 10:57:49;;;;;;;12.88;4.72;;;11.80;99.90;;;;;;4881404;29;20052;-92
2022/01/02 11:00:15;;;;;;;11.60;4.88;;;11.70;99.90;;;;;;4876494;29;20459;-92
2022/01/02 11:02:41;;;;;;;13.23;5.40;;;11.70;99.90;;;;;;4877433;29;20044;-93
2022/01/02 11:05:10;;;;;;;11.43;5.10;;;11.80;99.90;;;;;;4880406;29;20087;-90
2022/01/02 11:07:41;;;;;;;11.23;5.53;;;11.80;99.90;;;;;;4880147;29;20044;-89
2022/01/02 11:10:09;;;;;;;12.20;5.93;;;12.70;99.90;;;;;;4878343;29;20048;-90
2022/01/02 11:12:37;;;;;;;12.50;6.07;;;11.80;99.90;;;;;;4893260;29;20509;-92
2022/01/02 11:15:02;;;;;;;12.13;5.97;;;11.80;99.90;;;;;;4876709;29;20048;-91
2022/01/02 11:17:29;;;;;;;12.25;5.53;;;11.80;99.90;;;;;;4875893;29;20103;-90
2022/01/02 11:19:55;;;;;;;14.77;8.15;;;11.80;99.90;;;;;;4879706;29;20040;-91
2022/01/02 11:22:31;;;;;;;11.52;6.22;;;12.90;99.90;;;;;;4880122;29;20120;-90
2022/01/02 11:25:18;;;;;;;12.30;5.63;;;11.80;99.90;;;;;;4895517;29;20056;-91
2022/01/02 11:27:52;;;;;;;12.95;6.18;;;11.80;99.90;;;;;;4900337;29;20052;-90
2022/01/02 11:30:30;;;;;;;12.02;7.32;;;11.70;99.90;;;;;;4880925;29;20053;-90
2022/01/02 11:33:19;;;;;;;13.70;7.25;;;11.70;99.90;;;;;;4875105;29;20048;-90
2022/01/02 11:35:47;;;;;;;13.27;6.53;;;11.60;99.90;;;;;;4874171;29;20037;-89
2022/01/02 11:38:16;;;;;;;13.45;6.47;;;11.70;99.90;;;;;;4875307;29;20214;-91
2022/01/02 11:40:56;;;;;;;13.10;6.13;;;11.70;99.90;;;;;;4879921;29;20045;-90
2022/01/02 11:43:38;;;;;;;11.95;5.45;;;11.70;99.90;;;;;;4880235;29;20093;-91
2022/01/02 11:46:56;;;;;;;11.02;5.55;;;12.00;99.90;;;;;;4880465;29;20048;-91
2022/01/02 11:49:40;;;;;;;14.65;6.05;;;11.70;99.90;;;;;;4857604;29;20092;-90
2022/01/02 11:52:24;;;;;;;13.45;6.10;;;11.70;99.90;;;;;;4879993;29;20131;-90
2022/01/02 11:54:51;;;;;;;12.48;5.72;;;11.70;99.90;;;;;;4880640;29;20060;-90
2022/01/02 11:57:23;;;;;;;12.63;5.90;;;11.70;99.90;;;;;;4879883;29;20108;-90
2022/01/02 11:59:58;;;;;;;15.80;6.75;;;12.60;99.90;;;;;;4880582;29;20053;-91
2022/01/02 12:02:26;;;;;;;11.48;5.57;;;11.70;99.90;;;;;;4880687;29;20059;-90
2022/01/02 12:07:33;;;;;;;10.85;5.13;;;11.80;99.90;;;;;;4897668;29;20063;-92
2022/01/02 12:10:14;;;;;;;14.77;5.15;;;11.70;99.90;;;;;;4880378;29;20049;-91
2022/01/02 12:13:16;;;;;;;15.20;5.55;;;11.70;99.90;;;;;;4876878;29;20132;-91
2022/01/02 12:15:42;;;;;;;12.05;5.00;;;11.80;99.90;;;;;;4871703;29;20059;-93
2022/01/02 12:18:11;;;;;;;13.20;5.63;;;11.70;99.90;;;;;;4872437;29;20049;-91
2022/01/02 12:20:53;;;;;;;12.32;5.57;;;11.70;99.90;;;;;;4871957;29;20036;-91
2022/01/02 12:23:33;;;;;;;13.35;5.63;;;11.70;99.90;;;;;;4869488;29;20057;-90
2022/01/02 12:26:20;;;;;;;13.48;5.45;;;11.70;99.90;;;;;;4866988;29;20045;-94
2022/01/02 12:28:56;;;;;;;16.83;10.32;;;11.70;99.90;;;;;;4869726;29;20044;-90
2022/01/02 12:31:45;;;;;;;14.95;8.05;;;11.70;99.90;;;;;;4872192;29;20045;-89
2022/01/02 12:34:20;;;;;;;15.77;9.18;;;11.70;99.90;;;;;;4869139;29;20624;-91
2022/01/02 12:36:51;;;;;;;13.80;8.13;;;11.80;99.90;;;;;;4872333;29;20048;-89
2022/01/02 12:39:28;;;;;;;14.13;8.38;;;12.60;99.90;;;;;;4872991;29;20036;-89
2022/01/02 12:42:04;;;;;;;15.63;8.27;;;11.70;99.90;;;;;;4873521;29;20478;-91
2022/01/02 12:44:33;;;;;;;15.55;9.50;;;11.80;99.90;;;;;;4873206;29;20113;-90
2022/01/02 12:47:01;;;;;;;13.40;5.57;;;11.80;99.90;;;;;;4873642;29;20041;-91
2022/01/02 12:49:29;;;;;;;13.65;5.80;;;11.80;99.90;;;;;;4873180;29;20052;-89
2022/01/02 12:51:56;;;;;;;13.32;6.43;;;12.10;99.90;;;;;;4876050;29;20040;-88
2022/01/02 12:54:27;;;;;;;14.60;4.95;;;12.30;99.90;;;;;;4873899;29;20049;-88
2022/01/02 12:56:55;;;;;;;19.25;8.15;;;12.10;99.90;;;;;;4874880;29;20043;-89
2022/01/02 12:59:35;;;;;;;10.10;4.57;;;11.80;99.90;;;;;;4875393;29;20053;-90
2022/01/02 13:02:21;;;;;;;11.73;4.88;;;11.80;99.90;;;;;;4892337;29;20109;-93
2022/01/02 13:05:04;;;;;;;11.48;5.70;;;11.80;99.90;;;;;;4869581;29;20397;-93
2022/01/02 13:07:32;;;;;;;;;;;11.80;99.90;;;;;;4872034;29;20052;-90
2022/01/02 13:10:13;;;;;;;14.25;5.50;;;12.10;99.90;;;;;;4867259;29;19924;-88
2022/01/02 13:12:45;;;;;;;12.32;4.82;;;11.90;99.90;;;;;;4865550;29;20067;-92
2022/01/02 13:15:12;;;;;;;11.77;3.88;;;11.70;99.90;;;;;;4865454;29;20136;-91
2022/01/02 13:17:54;;;;;;;12.15;3.42;;;11.90;99.90;;;;;;4871321;29;20068;-92
2022/01/02 13:20:34;;;;;;;11.93;3.33;;;11.90;99.90;;;;;;4872364;29;20084;-92
2022/01/02 13:23:14;;;;;;;12.55;5.03;;;12.00;99.90;;;;;;4864773;29;20125;-93